sensor_id;sensor_type;location;lat;lon;timestamp;pressure;altitude;pressure_sealevel;temperature;humidity
12763;BME280;6445;52.490;13.378;2023-02-19T00:01:19;-12695.97;;;-146.10;100.00
12763;BME280;6445;52.490;13.378;2023-02-19T00:03:54;-12695.97;;;-146.10;100.00
12763;BME280;6445;52.490;13.378;2023-02-19T00:06:20;-12695.97;;;-146.10;100.00
12763;BME280;6445;52.490;13.378;2023-02-19T00:08:46;-12695.97;;;-146.10;100.00
12763;BME280;6445;52.490;13.378;2023-02-19T00:11:14;-12695.97;;;-146.10;100.00
12763;BME280;6445;52.490;13.378;2023-02-19T00:13:44;-12695.97;;;-146.10;100.00
12763;BME280;6445;52.490;13.378;2023-02-19T00:16:13;-12695.97;;;-146.10;100.00
12763;BME280;6445;52.490;13.378;2023-02-19T00:18:40;-12695.97;;;-146.10;100.00
12763;BME280;6445;52.490;13.378;2023-02-19T00:21:06;-12695.97;;;-146.10;100.00
12763;BME280;6445;52.490;13.378;2023-02-19T00:23:31;-12695.97;;;-146.10;100.00
12763;BME280;6445;52.490;13.378;2023-02-19T00:26:01;-12695.97;;;-146.10;100.00
12763;BME280;6445;52.490;13.378;2023-02-19T00:28:27;-12695.97;;;-146.10;100.00
12763;BME280;6445;52.490;13.378;2023-02-19T00:30:52;-12695.97;;;-146.10;100.00
12763;BME280;6445;52.490;13.378;2023-02-19T00:33:17;-12695.97;;;-146.10;100.00
12763;BME280;6445;52.490;13.378;2023-02-19T00:35:42;-12695.97;;;-146.10;100.00
12763;BME280;6445;52.490;13.378;2023-02-19T00:38:08;-12695.97;;;-146.10;100.00
12763;BME280;6445;52.490;13.378;2023-02-19T00:40:33;-12695.97;;;-146.10;100.00
12763;BME280;6445;52.490;13.378;2023-02-19T00:42:58;-12695.97;;;-146.10;100.00
12763;BME280;6445;52.490;13.378;2023-02-19T00:45:23;-12695.97;;;-146.10;100.00
12763;BME280;6445;52.490;13.378;2023-02-19T00:47:49;-12695.97;;;-146.10;100.00
12763;BME280;6445;52.490;13.378;2023-02-19T00:50:14;-12695.97;;;-146.10;100.00
12763;BME280;6445;52.490;13.378;2023-02-19T00:52:39;-12695.97;;;-146.10;100.00
12763;BME280;6445;52.490;13.378;2023-02-19T00:55:05;-12695.97;;;-146.10;100.00
12763;BME280;6445;52.490;13.378;2023-02-19T00:57:30;-12695.97;;;-146.10;100.00
12763;BME280;6445;52.490;13.378;2023-02-19T00:59:55;-12695.97;;;-146.10;100.00
12763;BME280;6445;52.490;13.378;2023-02-19T01:02:21;-12695.97;;;-146.10;100.00
12763;BME280;6445;52.490;13.378;2023-02-19T01:04:46;-12695.97;;;-146.10;100.00
12763;BME280;6445;52.490;13.378;2023-02-19T01:07:11;-12695.97;;;-146.10;100.00
12763;BME280;6445;52.490;13.378;2023-02-19T01:09:36;-12695.97;;;-146.10;100.00
12763;BME280;6445;52.490;13.378;2023-02-19T01:12:03;-12695.97;;;-146.10;100.00
12763;BME280;6445;52.490;13.378;2023-02-19T01:14:28;-12695.97;;;-146.10;100.00
12763;BME280;6445;52.490;13.378;2023-02-19T01:16:53;-12695.97;;;-146.10;100.00
12763;BME280;6445;52.490;13.378;2023-02-19T01:19:19;-12695.97;;;-146.10;100.00
12763;BME280;6445;52.490;13.378;2023-02-19T01:21:44;-12695.97;;;-146.10;100.00
12763;BME280;6445;52.490;13.378;2023-02-19T01:24:09;-12695.97;;;-146.10;100.00
12763;BME280;6445;52.490;13.378;2023-02-19T01:26:34;-12695.97;;;-146.10;100.00
12763;BME280;6445;52.490;13.378;2023-02-19T01:29:00;-12695.97;;;-146.10;100.00
12763;BME280;6445;52.490;13.378;2023-02-19T01:31:27;-12695.97;;;-146.10;100.00
12763;BME280;6445;52.490;13.378;2023-02-19T01:33:55;-12695.97;;;-146.10;100.00
12763;BME280;6445;52.490;13.378;2023-02-19T01:36:20;-12695.97;;;-146.10;100.00
12763;BME280;6445;52.490;13.378;2023-02-19T01:38:46;-12695.97;;;-146.10;100.00
12763;BME280;6445;52.490;13.378;2023-02-19T01:41:18;-12695.97;;;-146.10;100.00
12763;BME280;6445;52.490;13.378;2023-02-19T01:43:58;-12695.97;;;-146.10;100.00
12763;BME280;6445;52.490;13.378;2023-02-19T01:46:28;-12695.97;;;-146.10;100.00
12763;BME280;6445;52.490;13.378;2023-02-19T01:48:54;-12695.97;;;-146.10;100.00
12763;BME280;6445;52.490;13.378;2023-02-19T01:51:21;-12695.97;;;-146.10;100.00
12763;BME280;6445;52.490;13.378;2023-02-19T01:53:50;-12695.97;;;-146.10;100.00
12763;BME280;6445;52.490;13.378;2023-02-19T01:56:19;-12695.97;;;-146.10;100.00
12763;BME280;6445;52.490;13.378;2023-02-19T01:58:45;-12695.97;;;-146.10;100.00
12763;BME280;6445;52.490;13.378;2023-02-19T02:01:11;-12695.97;;;-146.10;100.00
12763;BME280;6445;52.490;13.378;2023-02-19T02:03:37;-12695.97;;;-146.10;100.00
12763;BME280;6445;52.490;13.378;2023-02-19T02:06:18;-12695.97;;;-146.10;100.00
12763;BME280;6445;52.490;13.378;2023-02-19T02:08:45;-12695.97;;;-146.10;100.00
12763;BME280;6445;52.490;13.378;2023-02-19T02:11:30;-12695.97;;;-146.10;100.00
12763;BME280;6445;52.490;13.378;2023-02-19T02:13:56;-12695.97;;;-146.10;100.00
12763;BME280;6445;52.490;13.378;2023-02-19T02:17:23;-12695.97;;;-146.10;100.00
12763;BME280;6445;52.490;13.378;2023-02-19T02:22:12;-12695.97;;;-146.10;100.00
12763;BME280;6445;52.490;13.378;2023-02-19T02:30:38;-12695.97;;;-146.10;100.00
12763;BME280;6445;52.490;13.378;2023-02-19T02:35:53;-12695.97;;;-146.10;100.00
12763;BME280;6445;52.490;13.378;2023-02-19T02:38:24;-12695.97;;;-146.10;100.00
12763;BME280;6445;52.490;13.378;2023-02-19T02:40:52;-12695.97;;;-146.10;100.00
12763;BME280;6445;52.490;13.378;2023-02-19T02:43:18;-12695.97;;;-146.10;100.00
12763;BME280;6445;52.490;13.378;2023-02-19T02:45:44;-12695.97;;;-146.10;100.00
12763;BME280;6445;52.490;13.378;2023-02-19T02:48:16;-12695.97;;;-146.10;100.00
12763;BME280;6445;52.490;13.378;2023-02-19T02:50:54;-12695.97;;;-146.10;100.00
12763;BME280;6445;52.490;13.378;2023-02-19T02:53:26;-12695.97;;;-146.10;100.00
12763;BME280;6445;52.490;13.378;2023-02-19T02:56:13;-12695.97;;;-146.10;100.00
12763;BME280;6445;52.490;13.378;2023-02-19T02:58:40;-12695.97;;;-146.10;100.00
12763;BME280;6445;52.490;13.378;2023-02-19T03:01:10;-12695.97;;;-146.10;100.00
12763;BME280;6445;52.490;13.378;2023-02-19T03:04:01;-12695.97;;;-146.10;100.00
12763;BME280;6445;52.490;13.378;2023-02-19T03:06:29;-12695.97;;;-146.10;100.00
12763;BME280;6445;52.490;13.378;2023-02-19T03:09:09;-12695.97;;;-146.10;100.00
12763;BME280;6445;52.490;13.378;2023-02-19T03:11:38;-12695.97;;;-146.10;100.00
12763;BME280;6445;52.490;13.378;2023-02-19T03:14:29;-12695.97;;;-146.10;100.00
12763;BME280;6445;52.490;13.378;2023-02-19T03:17:30;-12695.97;;;-146.10;100.00
12763;BME280;6445;52.490;13.378;2023-02-19T03:20:19;-12695.97;;;-146.10;100.00
12763;BME280;6445;52.490;13.378;2023-02-19T03:22:45;-12695.97;;;-146.10;100.00
12763;BME280;6445;52.490;13.378;2023-02-19T03:25:17;-12695.97;;;-146.10;100.00
12763;BME280;6445;52.490;13.378;2023-02-19T03:28:04;-12695.97;;;-146.10;100.00
12763;BME280;6445;52.490;13.378;2023-02-19T03:30:34;-12695.97;;;-146.10;100.00
12763;BME280;6445;52.490;13.378;2023-02-19T03:33:04;-12695.97;;;-146.10;100.00
12763;BME280;6445;52.490;13.378;2023-02-19T03:35:34;-12695.97;;;-146.10;100.00
12763;BME280;6445;52.490;13.378;2023-02-19T03:38:11;-12695.97;;;-146.10;100.00
12763;BME280;6445;52.490;13.378;2023-02-19T03:40:43;-12695.97;;;-146.10;100.00
12763;BME280;6445;52.490;13.378;2023-02-19T03:43:29;-12695.97;;;-146.10;100.00
12763;BME280;6445;52.490;13.378;2023-02-19T03:46:13;-12695.97;;;-146.10;100.00
12763;BME280;6445;52.490;13.378;2023-02-19T03:48:52;-12695.97;;;-146.10;100.00
12763;BME280;6445;52.490;13.378;2023-02-19T03:51:41;-12695.97;;;-146.10;100.00
12763;BME280;6445;52.490;13.378;2023-02-19T03:55:00;-12695.97;;;-146.10;100.00
12763;BME280;6445;52.490;13.378;2023-02-19T04:00:29;-12695.97;;;-146.10;100.00
12763;BME280;6445;52.490;13.378;2023-02-19T04:03:01;-12695.97;;;-146.10;100.00
12763;BME280;6445;52.490;13.378;2023-02-19T04:05:31;-12695.97;;;-146.10;100.00
12763;BME280;6445;52.490;13.378;2023-02-19T04:08:05;-12695.97;;;-146.10;100.00
12763;BME280;6445;52.490;13.378;2023-02-19T04:10:32;-12695.97;;;-146.10;100.00
12763;BME280;6445;52.490;13.378;2023-02-19T04:13:01;-12695.97;;;-146.10;100.00
12763;BME280;6445;52.490;13.378;2023-02-19T04:15:30;-12695.97;;;-146.10;100.00
12763;BME280;6445;52.490;13.378;2023-02-19T04:18:04;-12695.97;;;-146.10;100.00
12763;BME280;6445;52.490;13.378;2023-02-19T04:20:35;-12695.97;;;-146.10;100.00
12763;BME280;6445;52.490;13.378;2023-02-19T04:23:03;-12695.97;;;-146.10;100.00
12763;BME280;6445;52.490;13.378;2023-02-19T04:25:29;-12695.97;;;-146.10;100.00
12763;BME280;6445;52.490;13.378;2023-02-19T04:27:55;-12695.97;;;-146.10;100.00
12763;BME280;6445;52.490;13.378;2023-02-19T04:30:20;-12695.97;;;-146.10;100.00
12763;BME280;6445;52.490;13.378;2023-02-19T04:32:46;-12695.97;;;-146.10;100.00
12763;BME280;6445;52.490;13.378;2023-02-19T04:35:11;-12695.97;;;-146.10;100.00
12763;BME280;6445;52.490;13.378;2023-02-19T04:37:36;-12695.97;;;-146.10;100.00
12763;BME280;6445;52.490;13.378;2023-02-19T04:40:01;-12695.97;;;-146.10;100.00
12763;BME280;6445;52.490;13.378;2023-02-19T04:42:27;-12695.97;;;-146.10;100.00
12763;BME280;6445;52.490;13.378;2023-02-19T04:44:52;-12695.97;;;-146.10;100.00
12763;BME280;6445;52.490;13.378;2023-02-19T04:47:17;-12695.97;;;-146.10;100.00
12763;BME280;6445;52.490;13.378;2023-02-19T04:49:43;-12695.97;;;-146.10;100.00
12763;BME280;6445;52.490;13.378;2023-02-19T04:52:09;-12695.97;;;-146.10;100.00
12763;BME280;6445;52.490;13.378;2023-02-19T04:54:34;-12695.97;;;-146.10;100.00
12763;BME280;6445;52.490;13.378;2023-02-19T04:56:59;-12695.97;;;-146.10;100.00
12763;BME280;6445;52.490;13.378;2023-02-19T04:59:24;-12695.97;;;-146.10;100.00
12763;BME280;6445;52.490;13.378;2023-02-19T05:01:50;-12695.97;;;-146.10;100.00
12763;BME280;6445;52.490;13.378;2023-02-19T05:04:15;-12695.97;;;-146.10;100.00
12763;BME280;6445;52.490;13.378;2023-02-19T05:06:40;-12695.97;;;-146.10;100.00
12763;BME280;6445;52.490;13.378;2023-02-19T05:09:05;-12695.97;;;-146.10;100.00
12763;BME280;6445;52.490;13.378;2023-02-19T05:11:31;-12695.97;;;-146.10;100.00
12763;BME280;6445;52.490;13.378;2023-02-19T05:13:56;-12695.97;;;-146.10;100.00
12763;BME280;6445;52.490;13.378;2023-02-19T05:16:21;-12695.97;;;-146.10;100.00
12763;BME280;6445;52.490;13.378;2023-02-19T05:18:46;-12695.97;;;-146.10;100.00
12763;BME280;6445;52.490;13.378;2023-02-19T05:21:12;-12695.97;;;-146.10;100.00
12763;BME280;6445;52.490;13.378;2023-02-19T05:23:38;-12695.97;;;-146.10;100.00
12763;BME280;6445;52.490;13.378;2023-02-19T05:26:10;-12695.97;;;-146.10;100.00
12763;BME280;6445;52.490;13.378;2023-02-19T05:28:35;-12695.97;;;-146.10;100.00
12763;BME280;6445;52.490;13.378;2023-02-19T05:31:06;-12695.97;;;-146.10;100.00
12763;BME280;6445;52.490;13.378;2023-02-19T05:33:31;-12695.97;;;-146.10;100.00
12763;BME280;6445;52.490;13.378;2023-02-19T05:35:57;-12695.97;;;-146.10;100.00
12763;BME280;6445;52.490;13.378;2023-02-19T05:38:22;-12695.97;;;-146.10;100.00
12763;BME280;6445;52.490;13.378;2023-02-19T05:40:48;-12695.97;;;-146.10;100.00
12763;BME280;6445;52.490;13.378;2023-02-19T05:43:14;-12695.97;;;-146.10;100.00
12763;BME280;6445;52.490;13.378;2023-02-19T05:45:40;-12695.97;;;-146.10;100.00
12763;BME280;6445;52.490;13.378;2023-02-19T05:48:06;-12695.97;;;-146.10;100.00
12763;BME280;6445;52.490;13.378;2023-02-19T05:50:33;-12695.97;;;-146.10;100.00
12763;BME280;6445;52.490;13.378;2023-02-19T05:52:59;-12695.97;;;-146.10;100.00
12763;BME280;6445;52.490;13.378;2023-02-19T05:55:25;-12695.97;;;-146.10;100.00
12763;BME280;6445;52.490;13.378;2023-02-19T05:57:51;-12695.97;;;-146.10;100.00
12763;BME280;6445;52.490;13.378;2023-02-19T06:00:17;-12695.97;;;-146.10;100.00
12763;BME280;6445;52.490;13.378;2023-02-19T06:02:43;-12695.97;;;-146.10;100.00
12763;BME280;6445;52.490;13.378;2023-02-19T06:05:08;-12695.97;;;-146.10;100.00
12763;BME280;6445;52.490;13.378;2023-02-19T06:07:34;-12695.97;;;-146.10;100.00
12763;BME280;6445;52.490;13.378;2023-02-19T06:09:59;-12695.97;;;-146.10;100.00
12763;BME280;6445;52.490;13.378;2023-02-19T06:12:24;-12695.97;;;-146.10;100.00
12763;BME280;6445;52.490;13.378;2023-02-19T06:14:50;-12695.97;;;-146.10;100.00
12763;BME280;6445;52.490;13.378;2023-02-19T06:17:15;-12695.97;;;-146.10;100.00
12763;BME280;6445;52.490;13.378;2023-02-19T06:19:41;-12695.97;;;-146.10;100.00
12763;BME280;6445;52.490;13.378;2023-02-19T06:22:06;-12695.97;;;-146.10;100.00
12763;BME280;6445;52.490;13.378;2023-02-19T06:24:32;-12695.97;;;-146.10;100.00
12763;BME280;6445;52.490;13.378;2023-02-19T06:26:57;-12695.97;;;-146.10;100.00
12763;BME280;6445;52.490;13.378;2023-02-19T06:29:23;-12695.97;;;-146.10;100.00
12763;BME280;6445;52.490;13.378;2023-02-19T06:31:48;-12695.97;;;-146.10;100.00
12763;BME280;6445;52.490;13.378;2023-02-19T06:34:14;-12695.97;;;-146.10;100.00
12763;BME280;6445;52.490;13.378;2023-02-19T06:36:39;-12695.97;;;-146.10;100.00
12763;BME280;6445;52.490;13.378;2023-02-19T06:39:05;-12695.97;;;-146.10;100.00
12763;BME280;6445;52.490;13.378;2023-02-19T06:41:30;-12695.97;;;-146.10;100.00
12763;BME280;6445;52.490;13.378;2023-02-19T06:43:56;-12695.97;;;-146.10;100.00
12763;BME280;6445;52.490;13.378;2023-02-19T06:46:21;-12695.97;;;-146.10;100.00
12763;BME280;6445;52.490;13.378;2023-02-19T06:48:46;-12695.97;;;-146.10;100.00
12763;BME280;6445;52.490;13.378;2023-02-19T06:51:14;-12695.97;;;-146.10;100.00
12763;BME280;6445;52.490;13.378;2023-02-19T06:53:42;-12695.97;;;-146.10;100.00
12763;BME280;6445;52.490;13.378;2023-02-19T06:56:30;-12695.97;;;-146.10;100.00
12763;BME280;6445;52.490;13.378;2023-02-19T06:58:58;-12695.97;;;-146.10;100.00
12763;BME280;6445;52.490;13.378;2023-02-19T07:01:24;-12695.97;;;-146.10;100.00
12763;BME280;6445;52.490;13.378;2023-02-19T07:03:51;-12695.97;;;-146.10;100.00
12763;BME280;6445;52.490;13.378;2023-02-19T07:06:18;-12695.97;;;-146.10;100.00
12763;BME280;6445;52.490;13.378;2023-02-19T07:08:44;-12695.97;;;-146.10;100.00
12763;BME280;6445;52.490;13.378;2023-02-19T07:11:09;-12695.97;;;-146.10;100.00
12763;BME280;6445;52.490;13.378;2023-02-19T07:13:35;-12695.97;;;-146.10;100.00
12763;BME280;6445;52.490;13.378;2023-02-19T07:16:05;-12695.97;;;-146.10;100.00
12763;BME280;6445;52.490;13.378;2023-02-19T07:18:35;-12695.97;;;-146.10;100.00
12763;BME280;6445;52.490;13.378;2023-02-19T07:21:05;-12695.97;;;-146.10;100.00
12763;BME280;6445;52.490;13.378;2023-02-19T07:23:30;-12695.97;;;-146.10;100.00
12763;BME280;6445;52.490;13.378;2023-02-19T07:25:56;-12695.97;;;-146.10;100.00
12763;BME280;6445;52.490;13.378;2023-02-19T07:28:21;-12695.97;;;-146.10;100.00
12763;BME280;6445;52.490;13.378;2023-02-19T07:30:47;-12694.50;;;-146.10;100.00
12763;BME280;6445;52.490;13.378;2023-02-19T07:33:12;-12190.78;;;-146.10;100.00
12763;BME280;6445;52.490;13.378;2023-02-19T07:35:37;-11938.88;;;-146.10;100.00
12763;BME280;6445;52.490;13.378;2023-02-19T07:38:08;-11183.13;;;-146.10;100.00
12763;BME280;6445;52.490;13.378;2023-02-19T07:40:34;-10679.22;;;-146.10;100.00
12763;BME280;6445;52.490;13.378;2023-02-19T07:43:00;-10175.25;;;-146.10;100.00
12763;BME280;6445;52.490;13.378;2023-02-19T07:45:25;-9419.13;;;-146.10;100.00
12763;BME280;6445;52.490;13.378;2023-02-19T07:47:51;-7654.34;;;-146.10;100.00
12763;BME280;6445;52.490;13.378;2023-02-19T07:50:16;-5131.78;;;-146.10;100.00
12763;BME280;6445;52.490;13.378;2023-02-19T07:52:41;-4627.06;;;-146.10;100.00
12763;BME280;6445;52.490;13.378;2023-02-19T07:55:07;-1597.41;;;-146.10;100.00
12763;BME280;6445;52.490;13.378;2023-02-19T07:57:32;5734.13;;;-146.10;100.00
12763;BME280;6445;52.490;13.378;2023-02-19T07:59:57;15869.47;;;-146.10;100.00
12763;BME280;6445;52.490;13.378;2023-02-19T08:02:22;27044.97;;;-146.10;100.00
12763;BME280;6445;52.490;13.378;2023-02-19T08:05:07;38675.19;;;-146.10;100.00
12763;BME280;6445;52.490;13.378;2023-02-19T08:07:33;44575.09;;;-146.10;100.00
12763;BME280;6445;52.490;13.378;2023-02-19T08:10:03;49136.28;;;-146.10;100.00
12763;BME280;6445;52.490;13.378;2023-02-19T08:12:57;52037.97;;;-146.10;100.00
12763;BME280;6445;52.490;13.378;2023-02-19T08:15:42;53004.34;;;-146.10;100.00
12763;BME280;6445;52.490;13.378;2023-02-19T08:18:08;52948.31;;;-146.10;94.90
12763;BME280;6445;52.490;13.378;2023-02-19T08:20:34;53256.47;;;-146.10;94.04
12763;BME280;6445;52.490;13.378;2023-02-19T08:22:59;52982.34;;;-146.10;91.51
12763;BME280;6445;52.490;13.378;2023-02-19T08:25:24;52338.06;;;-146.10;85.47
12763;BME280;6445;52.490;13.378;2023-02-19T08:27:50;52059.97;;;-146.10;79.36
12763;BME280;6445;52.490;13.378;2023-02-19T08:30:15;52061.97;;;-146.10;77.78
12763;BME280;6445;52.490;13.378;2023-02-19T08:32:40;52033.97;;;-146.10;77.68
12763;BME280;6445;52.490;13.378;2023-02-19T08:35:06;52041.97;;;-146.10;76.72
12763;BME280;6445;52.490;13.378;2023-02-19T08:37:31;52029.97;;;-146.10;72.21
12763;BME280;6445;52.490;13.378;2023-02-19T08:39:57;51965.97;;;-146.10;63.39
12763;BME280;6445;52.490;13.378;2023-02-19T08:42:22;51967.97;;;-146.10;65.35
12763;BME280;6445;52.490;13.378;2023-02-19T08:44:47;51995.97;;;-146.10;69.32
12763;BME280;6445;52.490;13.378;2023-02-19T08:47:13;51981.97;;;-146.10;61.35
12763;BME280;6445;52.490;13.378;2023-02-19T08:49:39;51965.97;;;-146.10;62.96
12763;BME280;6445;52.490;13.378;2023-02-19T08:52:04;52015.97;;;-146.10;60.04
12763;BME280;6445;52.490;13.378;2023-02-19T08:54:30;52065.97;;;-146.10;53.27
12763;BME280;6445;52.490;13.378;2023-02-19T08:56:55;52072.00;;;-146.10;52.94
12763;BME280;6445;52.490;13.378;2023-02-19T08:59:20;52063.97;;;-146.10;50.55
12763;BME280;6445;52.490;13.378;2023-02-19T09:01:46;52005.97;;;-146.10;61.38
12763;BME280;6445;52.490;13.378;2023-02-19T09:04:11;52033.97;;;-146.10;67.31
12763;BME280;6445;52.490;13.378;2023-02-19T09:06:37;51975.97;;;-146.10;62.74
12763;BME280;6445;52.490;13.378;2023-02-19T09:09:02;52019.97;;;-146.10;70.77
12763;BME280;6445;52.490;13.378;2023-02-19T09:11:27;52013.97;;;-146.10;73.57
12763;BME280;6445;52.490;13.378;2023-02-19T09:13:54;52078.00;;;-146.10;75.57
12763;BME280;6445;52.490;13.378;2023-02-19T09:16:20;52194.03;;;-146.10;80.02
12763;BME280;6445;52.490;13.378;2023-02-19T09:18:45;52136.00;;;-146.10;79.34
12763;BME280;6445;52.490;13.378;2023-02-19T09:21:11;52268.03;;;-146.10;81.31
12763;BME280;6445;52.490;13.378;2023-02-19T09:23:36;52270.03;;;-146.10;79.48
12763;BME280;6445;52.490;13.378;2023-02-19T09:26:02;52116.00;;;-146.10;74.55
12763;BME280;6445;52.490;13.378;2023-02-19T09:28:31;52120.00;;;-146.10;76.37
12763;BME280;6445;52.490;13.378;2023-02-19T09:30:56;52380.09;;;-146.10;83.81
12763;BME280;6445;52.490;13.378;2023-02-19T09:33:21;52436.09;;;-146.10;83.08
12763;BME280;6445;52.490;13.378;2023-02-19T09:35:47;52278.03;;;-146.10;81.33
12763;BME280;6445;52.490;13.378;2023-02-19T09:38:12;52348.06;;;-146.10;82.02
12763;BME280;6445;52.490;13.378;2023-02-19T09:40:38;52470.13;;;-146.10;82.53
12763;BME280;6445;52.490;13.378;2023-02-19T09:43:14;52190.03;;;-146.10;78.05
12763;BME280;6445;52.490;13.378;2023-02-19T09:45:40;52254.03;;;-146.10;81.32
12763;BME280;6445;52.490;13.378;2023-02-19T09:48:06;52714.22;;;-146.10;86.22
12763;BME280;6445;52.490;13.378;2023-02-19T09:50:43;52116.00;;;-146.10;75.57
12763;BME280;6445;52.490;13.378;2023-02-19T09:53:19;52053.97;;;-146.10;67.35
12763;BME280;6445;52.490;13.378;2023-02-19T09:55:47;51975.97;;;-146.10;60.35
12763;BME280;6445;52.490;13.378;2023-02-19T09:58:34;51983.97;;;-146.10;61.46
12763;BME280;6445;52.490;13.378;2023-02-19T10:01:02;51973.97;;;-146.10;68.39
12763;BME280;6445;52.490;13.378;2023-02-19T10:03:31;52011.97;;;-146.10;64.34
12763;BME280;6445;52.490;13.378;2023-02-19T10:06:13;51965.97;;;-146.10;62.97
12763;BME280;6445;52.490;13.378;2023-02-19T10:08:40;51995.97;;;-146.10;66.75
12763;BME280;6445;52.490;13.378;2023-02-19T10:11:06;51957.97;;;-146.10;64.05
12763;BME280;6445;52.490;13.378;2023-02-19T10:13:40;51965.97;;;-146.10;63.64
12763;BME280;6445;52.490;13.378;2023-02-19T10:16:11;51977.97;;;-146.10;65.41
12763;BME280;6445;52.490;13.378;2023-02-19T10:18:41;51977.97;;;-146.10;63.41
12763;BME280;6445;52.490;13.378;2023-02-19T10:21:22;52027.97;;;-146.10;60.40
12763;BME280;6445;52.490;13.378;2023-02-19T10:23:52;52035.97;;;-146.10;50.42
12763;BME280;6445;52.490;13.378;2023-02-19T10:26:18;52049.97;;;-146.10;46.98
12763;BME280;6445;52.490;13.378;2023-02-19T10:28:44;52041.97;;;-146.10;48.68
12763;BME280;6445;52.490;13.378;2023-02-19T10:31:22;52013.97;;;-146.10;48.81
12763;BME280;6445;52.490;13.378;2023-02-19T10:33:54;52120.00;;;-146.10;45.25
12763;BME280;6445;52.490;13.378;2023-02-19T10:36:37;52080.00;;;-146.10;43.89
12763;BME280;6445;52.490;13.378;2023-02-19T10:41:58;52047.97;;;-146.10;46.88
12763;BME280;6445;52.490;13.378;2023-02-19T10:44:27;51983.97;;;-146.10;49.67
12763;BME280;6445;52.490;13.378;2023-02-19T10:46:56;51949.97;;;-146.10;57.96
12763;BME280;6445;52.490;13.378;2023-02-19T10:49:31;51941.94;;;-146.10;61.56
12763;BME280;6445;52.490;13.378;2023-02-19T10:52:01;51963.97;;;-146.10;57.92
12763;BME280;6445;52.490;13.378;2023-02-19T10:54:34;52001.97;;;-146.10;58.14
12763;BME280;6445;52.490;13.378;2023-02-19T10:57:27;52045.97;;;-146.10;45.03
12763;BME280;6445;52.490;13.378;2023-02-19T11:00:20;52078.00;;;-146.10;41.27
12763;BME280;6445;52.490;13.378;2023-02-19T11:02:49;52104.00;;;-146.10;40.48
12763;BME280;6445;52.490;13.378;2023-02-19T11:05:18;52100.00;;;-146.10;38.55
12763;BME280;6445;52.490;13.378;2023-02-19T11:07:47;52092.00;;;-146.10;38.83
12763;BME280;6445;52.490;13.378;2023-02-19T11:10:37;52033.97;;;-146.10;41.80
12763;BME280;6445;52.490;13.378;2023-02-19T11:13:12;52021.97;;;-146.10;46.07
12763;BME280;6445;52.490;13.378;2023-02-19T11:15:39;52053.97;;;-146.10;43.66
12763;BME280;6445;52.490;13.378;2023-02-19T11:20:59;52090.00;;;-146.10;41.54
12763;BME280;6445;52.490;13.378;2023-02-19T11:23:30;52057.97;;;-146.10;41.27
12763;BME280;6445;52.490;13.378;2023-02-19T11:25:59;51985.97;;;-146.10;44.04
12763;BME280;6445;52.490;13.378;2023-02-19T11:28:33;51961.97;;;-146.10;48.39
12763;BME280;6445;52.490;13.378;2023-02-19T11:31:25;51995.97;;;-146.10;47.63
12763;BME280;6445;52.490;13.378;2023-02-19T11:33:57;52027.97;;;-146.10;40.96
12763;BME280;6445;52.490;13.378;2023-02-19T11:38:51;51967.97;;;-146.10;47.53
12763;BME280;6445;52.490;13.378;2023-02-19T11:46:51;52027.97;;;-146.10;41.16
12763;BME280;6445;52.490;13.378;2023-02-19T11:49:45;52019.97;;;-146.10;44.47
12763;BME280;6445;52.490;13.378;2023-02-19T11:52:28;51991.97;;;-146.10;43.24
12763;BME280;6445;52.490;13.378;2023-02-19T11:55:09;51997.97;;;-146.10;43.89
12763;BME280;6445;52.490;13.378;2023-02-19T11:57:44;52015.97;;;-146.10;41.54
12763;BME280;6445;52.490;13.378;2023-02-19T12:00:17;51983.97;;;-146.10;42.19
12763;BME280;6445;52.490;13.378;2023-02-19T12:03:21;51997.97;;;-146.10;44.81
12763;BME280;6445;52.490;13.378;2023-02-19T12:06:27;51971.97;;;-146.10;45.09
12763;BME280;6445;52.490;13.378;2023-02-19T12:09:13;51913.94;;;-146.10;47.67
12763;BME280;6445;52.490;13.378;2023-02-19T12:11:49;51933.94;;;-146.10;52.88
12763;BME280;6445;52.490;13.378;2023-02-19T12:22:31;51919.94;;;-146.10;56.16
12763;BME280;6445;52.490;13.378;2023-02-19T12:28:24;51905.94;;;-146.10;51.05
12763;BME280;6445;52.490;13.378;2023-02-19T12:33:37;51929.94;;;-146.10;55.43
12763;BME280;6445;52.490;13.378;2023-02-19T12:36:24;51931.94;;;-146.10;52.37
12763;BME280;6445;52.490;13.378;2023-02-19T12:39:14;51901.94;;;-146.10;53.39
12763;BME280;6445;52.490;13.378;2023-02-19T12:41:49;51985.97;;;-146.10;47.33
12763;BME280;6445;52.490;13.378;2023-02-19T12:44:36;51987.97;;;-146.10;44.55
12763;BME280;6445;52.490;13.378;2023-02-19T12:47:03;51983.97;;;-146.10;42.80
12763;BME280;6445;52.490;13.378;2023-02-19T12:49:35;52013.97;;;-146.10;41.90
12763;BME280;6445;52.490;13.378;2023-02-19T12:52:27;52021.97;;;-146.10;40.57
12763;BME280;6445;52.490;13.378;2023-02-19T12:55:02;52009.97;;;-146.10;40.14
12763;BME280;6445;52.490;13.378;2023-02-19T12:57:36;52027.97;;;-146.10;39.59
12763;BME280;6445;52.490;13.378;2023-02-19T13:00:26;52033.97;;;-146.10;38.22
12763;BME280;6445;52.490;13.378;2023-02-19T13:06:36;52013.97;;;-146.10;38.85
12763;BME280;6445;52.490;13.378;2023-02-19T13:09:06;52013.97;;;-146.10;40.63
12763;BME280;6445;52.490;13.378;2023-02-19T13:11:41;52015.97;;;-146.10;39.89
12763;BME280;6445;52.490;13.378;2023-02-19T13:14:20;52055.97;;;-146.10;38.25
12763;BME280;6445;52.490;13.378;2023-02-19T13:16:53;52074.00;;;-146.10;35.59
12763;BME280;6445;52.490;13.378;2023-02-19T13:19:19;52053.97;;;-146.10;35.35
12763;BME280;6445;52.490;13.378;2023-02-19T13:21:49;52120.00;;;-146.10;34.03
12763;BME280;6445;52.490;13.378;2023-02-19T13:24:38;52063.97;;;-146.10;34.99
12763;BME280;6445;52.490;13.378;2023-02-19T13:33:31;52029.97;;;-146.10;36.14
12763;BME280;6445;52.490;13.378;2023-02-19T13:39:23;51989.97;;;-146.10;39.98